createdAt,value
2022-08-19T00:01:53.502Z,100385.34
2022-08-19T00:04:29.001Z,100437.34
2022-08-19T00:06:57.130Z,100428.16
2022-08-19T00:09:25.563Z,100445.91
2022-08-19T00:11:53.177Z,100380.84
2022-08-19T00:14:21.989Z,100432.31
2022-08-19T00:16:49.727Z,100435.06
2022-08-19T00:19:17.661Z,100426.63
2022-08-19T00:21:44.744Z,100432.09
2022-08-19T00:24:14.259Z,100424.56
2022-08-19T00:26:42.372Z,100418.22
2022-08-19T00:29:12.374Z,100404.53
2022-08-19T00:31:39.518Z,100423.00
2022-08-19T00:34:06.357Z,100426.50
2022-08-19T00:36:34.270Z,100417.31
2022-08-19T00:39:02.339Z,100425.09
2022-08-19T00:41:29.686Z,100401.22
2022-08-19T00:44:11.756Z,100412.59
2022-08-19T00:46:41.178Z,100369.59
2022-08-19T00:49:15.866Z,100370.69
2022-08-19T00:51:45.456Z,100425.50
2022-08-19T00:54:12.841Z,100433.00
2022-08-19T00:56:39.974Z,100442.56
2022-08-19T00:59:10.215Z,100358.81
2022-08-19T01:01:40.161Z,100436.25
2022-08-19T01:04:07.107Z,100409.31
2022-08-19T01:06:34.910Z,100439.25
2022-08-19T01:09:01.849Z,100413.06
2022-08-19T01:11:30.753Z,100420.59
2022-08-19T01:13:57.966Z,100426.88
2022-08-19T01:16:28.526Z,100438.69
2022-08-19T01:18:55.586Z,100411.50
2022-08-19T01:21:27.237Z,100434.53
2022-08-19T01:23:54.490Z,100396.28
2022-08-19T01:26:24.696Z,100403.19
2022-08-19T01:28:59.464Z,100431.72
2022-08-19T01:31:33.205Z,100417.75
2022-08-19T01:34:01.979Z,100424.63
2022-08-19T01:36:31.399Z,100440.63
2022-08-19T01:38:59.285Z,100434.72
2022-08-19T01:41:26.870Z,100393.25
2022-08-19T01:44:09.807Z,100423.41
2022-08-19T01:46:42.418Z,100348.25
2022-08-19T01:49:09.500Z,100402.25
2022-08-19T01:51:38.465Z,100386.22
2022-08-19T01:54:11.582Z,100431.44
2022-08-19T01:56:39.380Z,100390.75
2022-08-19T01:59:11.386Z,100328.41
2022-08-19T02:01:38.377Z,100401.94
2022-08-19T02:04:06.843Z,100376.53
2022-08-19T02:06:34.384Z,100372.72
2022-08-19T02:09:01.670Z,100342.28
2022-08-19T02:11:35.272Z,100413.09
2022-08-19T02:14:07.435Z,100395.00
2022-08-19T02:16:35.690Z,100384.19
2022-08-19T02:19:02.937Z,100394.09
2022-08-19T02:21:31.743Z,100399.66
2022-08-19T02:23:59.527Z,100358.06
2022-08-19T02:26:27.767Z,100397.75
2022-08-19T02:28:55.788Z,100392.16
2022-08-19T02:31:25.601Z,100399.25
2022-08-19T02:33:56.508Z,100390.94
2022-08-19T02:36:25.494Z,100402.88
2022-08-19T02:38:54.357Z,100398.66
2022-08-19T02:41:29.470Z,100392.84
2022-08-19T02:44:22.979Z,100402.88
2022-08-19T02:46:47.943Z,100403.72
2022-08-19T02:49:17.692Z,100400.69
2022-08-19T02:51:46.064Z,100389.31
2022-08-19T02:54:13.940Z,100385.16
2022-08-19T02:56:42.626Z,100398.25
2022-08-19T02:59:11.206Z,100395.66
2022-08-19T03:01:40.889Z,100379.81
2022-08-19T03:04:09.414Z,100341.28
2022-08-19T03:06:42.440Z,100390.22
2022-08-19T03:09:09.821Z,100400.34
2022-08-19T03:11:36.843Z,100367.72
2022-08-19T03:14:05.878Z,100390.44
2022-08-19T03:16:34.957Z,100374.09
2022-08-19T03:19:02.963Z,100402.91
2022-08-19T03:21:34.897Z,100342.56
2022-08-19T03:24:05.865Z,100406.41
2022-08-19T03:26:33.415Z,100409.41
2022-08-19T03:29:05.488Z,100398.47
2022-08-19T03:31:44.720Z,100371.34
2022-08-19T03:34:23.998Z,100387.69
2022-08-19T03:36:50.833Z,100404.03
2022-08-19T03:39:18.577Z,100399.53
2022-08-19T03:41:48.283Z,100405.78
2022-08-19T03:44:19.422Z,100398.13
2022-08-19T03:46:52.980Z,100410.81
2022-08-19T03:49:21.047Z,100416.88
2022-08-19T03:51:49.435Z,100407.84
2022-08-19T03:54:19.715Z,100432.25
2022-08-19T03:56:48.766Z,100366.63
2022-08-19T03:59:26.234Z,100414.84
2022-08-19T04:01:57.883Z,100406.13
2022-08-19T04:04:25.450Z,100429.16
2022-08-19T04:06:56.977Z,100401.31
2022-08-19T04:09:24.055Z,100435.00
2022-08-19T04:11:58.139Z,100439.16
2022-08-19T04:14:32.795Z,100361.88
2022-08-19T04:17:01.243Z,100442.34
2022-08-19T04:19:30.697Z,100439.69
2022-08-19T04:21:57.535Z,100431.97
2022-08-19T04:24:24.780Z,100436.47
2022-08-19T04:26:52.459Z,100439.16
2022-08-19T04:29:26.548Z,100436.47
2022-08-19T04:31:55.356Z,100435.50
2022-08-19T04:34:25.125Z,100439.16
2022-08-19T04:36:53.017Z,100438.97
2022-08-19T04:39:50.512Z,100447.53
2022-08-19T04:42:37.563Z,100446.13
2022-08-19T04:45:12.473Z,100423.38
2022-08-19T04:47:47.424Z,100429.25
2022-08-19T04:50:27.496Z,100444.97
2022-08-19T04:52:56.708Z,100446.66
2022-08-19T04:55:26.515Z,100365.59
2022-08-19T04:57:53.467Z,100450.50
2022-08-19T05:00:20.480Z,100444.16
2022-08-19T05:02:47.422Z,100450.88
2022-08-19T05:05:14.351Z,100445.47
2022-08-19T05:07:42.355Z,100453.44
2022-08-19T05:10:09.517Z,100446.53
2022-08-19T05:12:36.735Z,100463.06
2022-08-19T05:15:06.917Z,100455.91
2022-08-19T05:17:38.238Z,100417.72
2022-08-19T05:20:26.746Z,100442.66
2022-08-19T05:22:53.920Z,100371.59
2022-08-19T05:25:22.112Z,100408.13
2022-08-19T05:27:49.782Z,100442.47
2022-08-19T05:30:17.851Z,100422.72
2022-08-19T05:32:44.810Z,100442.09
2022-08-19T05:35:13.012Z,100416.56
2022-08-19T05:37:41.625Z,100429.88
2022-08-19T05:40:09.984Z,100424.19
2022-08-19T05:42:37.005Z,100470.94
2022-08-19T05:45:05.539Z,100420.59
2022-08-19T05:47:33.126Z,100485.25
2022-08-19T05:50:00.519Z,100471.84
2022-08-19T05:52:28.316Z,100472.44
2022-08-19T05:54:56.991Z,100490.53
2022-08-19T05:57:25.010Z,100492.28
2022-08-19T05:59:57.923Z,100475.81
2022-08-19T06:02:29.898Z,100396.84
2022-08-19T06:04:56.895Z,100433.78
2022-08-19T06:07:23.889Z,100480.03
2022-08-19T06:10:00.135Z,100451.94
2022-08-19T06:12:35.542Z,100502.75
2022-08-19T06:15:09.180Z,100493.72
2022-08-19T06:17:36.387Z,100516.84
2022-08-19T06:20:10.806Z,100482.78
2022-08-19T06:22:47.592Z,100505.22
2022-08-19T06:25:15.863Z,100486.59
2022-08-19T06:30:30.779Z,100452.25
2022-08-19T06:32:57.784Z,100520.00
2022-08-19T06:35:24.628Z,100521.06
2022-08-19T06:37:51.613Z,100522.53
2022-08-19T06:40:18.776Z,100525.44
2022-08-19T06:42:53.033Z,100518.81
2022-08-19T06:45:25.030Z,100511.34
2022-08-19T06:48:00.736Z,100522.50
2022-08-19T06:50:28.467Z,100530.38
2022-08-19T06:52:55.476Z,100535.94
2022-08-19T06:55:22.490Z,100516.78
2022-08-19T06:57:49.483Z,100511.66
2022-08-19T07:00:17.089Z,100514.25
2022-08-19T07:02:49.761Z,100525.94
2022-08-19T07:05:24.456Z,100486.66
2022-08-19T07:07:51.285Z,100508.72
2022-08-19T07:10:18.866Z,100460.97
2022-08-19T07:12:46.375Z,100522.53
2022-08-19T07:15:13.427Z,100517.47
2022-08-19T07:17:41.862Z,100542.19
2022-08-19T07:20:10.724Z,100485.44
2022-08-19T07:22:39.551Z,100521.06
2022-08-19T07:25:09.136Z,100539.69
2022-08-19T07:27:36.228Z,100547.13
2022-08-19T07:30:04.119Z,100545.66
2022-08-19T07:32:32.645Z,100517.69
2022-08-19T07:35:01.823Z,100534.41
2022-08-19T07:37:32.980Z,100537.56
2022-08-19T07:40:01.807Z,100535.91
2022-08-19T07:42:30.873Z,100559.97
2022-08-19T07:44:58.486Z,100560.09
2022-08-19T07:47:50.228Z,100519.78
2022-08-19T07:50:12.742Z,100567.66
2022-08-19T07:52:40.815Z,100561.13
2022-08-19T07:55:40.674Z,100567.41
2022-08-19T07:57:58.183Z,100570.00
2022-08-19T08:00:25.368Z,100522.25
2022-08-19T08:02:55.744Z,100532.59
2022-08-19T08:05:43.915Z,100511.19
2022-08-19T08:08:31.151Z,100474.66
2022-08-19T08:10:59.767Z,100498.63
2022-08-19T08:13:28.205Z,100554.66
2022-08-19T08:15:56.332Z,100503.25
2022-08-19T08:18:27.617Z,100555.19
2022-08-19T08:20:56.481Z,100562.22
2022-08-19T08:23:23.890Z,100546.59
2022-08-19T08:25:51.147Z,100541.66
2022-08-19T08:28:21.023Z,100568.81
2022-08-19T08:30:50.617Z,100559.34
2022-08-19T08:33:33.217Z,100576.25
2022-08-19T08:36:00.274Z,100493.56
2022-08-19T08:38:27.321Z,100528.13
2022-08-19T08:41:07.901Z,100577.88
2022-08-19T08:43:38.501Z,100569.22
2022-08-19T08:46:07.489Z,100549.50
2022-08-19T08:48:59.396Z,100567.56
2022-08-19T08:54:16.087Z,100483.72
2022-08-19T08:56:44.510Z,100574.13
2022-08-19T08:59:25.678Z,100519.44
2022-08-19T09:01:52.593Z,100561.78
2022-08-19T09:04:19.797Z,100545.38
2022-08-19T09:06:53.218Z,100580.72
2022-08-19T09:09:42.101Z,100561.75
2022-08-19T09:12:15.038Z,100545.25
2022-08-19T09:14:59.699Z,100572.78
2022-08-19T09:17:36.324Z,100525.81
2022-08-19T09:20:24.540Z,100521.41
2022-08-19T09:22:53.379Z,100492.13
2022-08-19T09:25:27.075Z,100562.53
2022-08-19T09:28:01.238Z,100546.41
2022-08-19T09:30:33.258Z,100580.34
2022-08-19T09:33:00.918Z,100597.69
2022-08-19T09:35:30.684Z,100535.44
2022-08-19T09:37:59.560Z,100584.75
2022-08-19T09:40:33.459Z,100599.13
2022-08-19T09:43:13.173Z,100603.88
2022-08-19T09:45:41.097Z,100514.53
2022-08-19T09:48:07.890Z,100585.41
2022-08-19T09:50:51.557Z,100597.53
2022-08-19T09:53:20.162Z,100600.66
2022-08-19T09:55:47.012Z,100579.75
2022-08-19T09:58:13.844Z,100523.06
2022-08-19T10:00:40.803Z,100584.28
2022-08-19T10:03:07.597Z,100574.53
2022-08-19T10:05:50.526Z,100579.97
2022-08-19T10:08:31.556Z,100549.44
2022-08-19T10:10:59.248Z,100575.53
2022-08-19T10:13:28.932Z,100539.09
2022-08-19T10:15:58.298Z,100578.34
2022-08-19T10:18:26.558Z,100564.00
2022-08-19T10:21:02.742Z,100581.31
2022-08-19T10:23:33.751Z,100578.81
2022-08-19T10:26:02.319Z,100553.78
2022-08-19T10:28:29.123Z,100570.69
2022-08-19T10:30:57.339Z,100566.56
2022-08-19T10:33:53.034Z,100560.84
2022-08-19T10:36:20.002Z,100546.53
2022-08-19T10:38:56.090Z,100574.13
2022-08-19T10:41:26.358Z,100568.28
2022-08-19T10:43:55.623Z,100561.53
2022-08-19T10:46:24.865Z,100570.06
2022-08-19T10:48:52.713Z,100486.16
2022-08-19T10:51:46.556Z,100503.22
2022-08-19T10:54:16.692Z,100561.78
2022-08-19T10:56:55.334Z,100533.34
2022-08-19T10:59:35.337Z,100542.84
2022-08-19T11:02:05.786Z,100551.50
2022-08-19T11:04:33.758Z,100490.84
2022-08-19T11:07:00.547Z,100562.97
2022-08-19T11:09:33.946Z,100552.59
2022-08-19T11:12:02.946Z,100553.28
2022-08-19T11:14:34.391Z,100481.91
2022-08-19T11:17:02.673Z,100551.22
2022-08-19T11:19:29.532Z,100547.63
2022-08-19T11:21:56.597Z,100549.88
2022-08-19T11:24:26.894Z,100499.97
2022-08-19T11:27:00.111Z,100542.44
2022-08-19T11:29:29.030Z,100542.13
2022-08-19T11:31:58.175Z,100545.13
2022-08-19T11:34:28.737Z,100483.75
2022-08-19T11:36:59.367Z,100522.50
2022-08-19T11:39:28.236Z,100544.88
2022-08-19T11:41:55.817Z,100507.34
2022-08-19T11:44:22.790Z,100504.41
2022-08-19T11:46:49.671Z,100490.34
2022-08-19T11:49:20.842Z,100494.22
2022-08-19T11:51:48.321Z,100492.75
2022-08-19T11:54:17.276Z,100530.31
2022-08-19T11:56:45.154Z,100497.25
2022-08-19T11:59:14.733Z,100447.13
2022-08-19T12:01:43.727Z,100521.09
2022-08-19T12:04:11.365Z,100520.47
2022-08-19T12:06:40.518Z,100521.84
2022-08-19T12:09:10.531Z,100514.31
2022-08-19T12:11:39.488Z,100502.94
2022-08-19T12:14:07.828Z,100470.66
2022-08-19T12:16:34.573Z,100508.06
2022-08-19T12:19:06.089Z,100502.94
2022-08-19T12:21:35.864Z,100455.91
2022-08-19T12:24:04.925Z,100493.59
2022-08-19T12:26:32.569Z,100499.63
2022-08-19T12:29:00.748Z,100493.66
2022-08-19T12:31:29.508Z,100474.38
2022-08-19T12:33:56.436Z,100506.69
2022-08-19T12:36:24.524Z,100494.72
2022-08-19T12:38:52.802Z,100457.78
2022-08-19T12:41:20.253Z,100479.47
2022-08-19T12:43:47.320Z,100475.66
2022-08-19T12:46:15.296Z,100495.28
2022-08-19T12:48:46.038Z,100483.47
2022-08-19T12:51:20.714Z,100483.06
2022-08-19T12:53:48.535Z,100487.03
2022-08-19T12:56:15.902Z,100478.13
2022-08-19T12:58:48.905Z,100474.31
2022-08-19T13:01:21.981Z,100478.28
2022-08-19T13:03:49.988Z,100484.94
2022-08-19T13:06:19.462Z,100486.69
2022-08-19T13:08:47.098Z,100449.66
2022-08-19T13:11:17.730Z,100461.03
2022-08-19T13:13:46.930Z,100448.75
2022-08-19T13:16:15.381Z,100458.41
2022-08-19T13:18:43.811Z,100448.16
2022-08-19T13:21:14.594Z,100441.63
2022-08-19T13:23:42.653Z,100403.56
2022-08-19T13:26:12.750Z,100433.50
2022-08-19T13:28:59.489Z,100432.88
2022-08-19T13:31:47.122Z,100425.31
2022-08-19T13:34:15.167Z,100389.09
2022-08-19T13:36:42.005Z,100433.94
2022-08-19T13:39:10.131Z,100395.41
2022-08-19T13:41:38.274Z,100380.09
2022-08-19T13:44:07.751Z,100368.09
2022-08-19T13:46:34.707Z,100377.97
2022-08-19T13:49:01.488Z,100368.63
2022-08-19T13:51:28.306Z,100414.66
2022-08-19T13:53:56.671Z,100402.88
2022-08-19T13:56:26.251Z,100405.00
2022-08-19T13:58:54.547Z,100403.06
2022-08-19T14:01:25.675Z,100396.56
2022-08-19T14:03:52.544Z,100360.19
2022-08-19T14:06:20.030Z,100393.03
2022-08-19T14:08:48.465Z,100290.91
2022-08-19T14:11:15.878Z,100340.59
2022-08-19T14:13:42.871Z,100378.72
2022-08-19T14:16:15.031Z,100306.13
2022-08-19T14:18:42.907Z,100376.72
2022-08-19T14:21:16.530Z,100377.53
2022-08-19T14:23:43.344Z,100349.25
2022-08-19T14:26:13.217Z,100319.72
2022-08-19T14:28:42.866Z,100343.53
2022-08-19T14:31:11.522Z,100366.94
2022-08-19T14:33:38.364Z,100367.38
2022-08-19T14:36:07.071Z,100379.31
2022-08-19T14:38:34.018Z,100348.91
2022-08-19T14:41:14.995Z,100378.53
2022-08-19T14:43:42.577Z,100296.00
2022-08-19T14:46:11.402Z,100345.69
2022-08-19T14:48:41.381Z,100358.81
2022-08-19T14:51:08.968Z,100342.84
2022-08-19T14:53:36.503Z,100384.28
2022-08-19T14:56:09.338Z,100353.91
2022-08-19T14:58:38.636Z,100376.91
2022-08-19T15:01:06.146Z,100366.22
2022-08-19T15:03:33.369Z,100355.56
2022-08-19T15:06:05.709Z,100319.41
2022-08-19T15:08:35.124Z,100351.84
2022-08-19T15:11:03.042Z,100338.31
2022-08-19T15:13:31.191Z,100319.00
2022-08-19T15:15:58.442Z,100324.31
2022-08-19T15:18:25.603Z,100369.53
2022-08-19T15:20:52.533Z,100366.25
2022-08-19T15:23:22.082Z,100361.28
2022-08-19T15:25:49.647Z,100316.53
2022-08-19T15:28:17.444Z,100314.47
2022-08-19T15:30:44.823Z,100350.63
2022-08-19T15:33:15.694Z,100316.09
2022-08-19T15:35:43.645Z,100370.72
2022-08-19T15:38:14.156Z,100364.56
2022-08-19T15:40:42.346Z,100362.50
2022-08-19T15:43:09.276Z,100360.06
2022-08-19T15:45:36.279Z,100354.69
2022-08-19T15:48:05.236Z,100364.56
2022-08-19T15:50:32.327Z,100367.03
2022-08-19T15:53:03.502Z,100306.22
2022-08-19T15:55:34.754Z,100354.28
2022-08-19T15:58:29.725Z,100362.91
2022-08-19T16:01:27.035Z,100351.78
2022-08-19T16:04:15.884Z,100347.25
2022-08-19T16:06:49.308Z,100354.63
2022-08-19T16:09:17.611Z,100357.16
2022-08-19T16:11:46.426Z,100326.72
2022-08-19T16:14:20.104Z,100371.09
2022-08-19T16:16:47.893Z,100345.25
2022-08-19T16:19:17.968Z,100335.38
2022-08-19T16:21:47.692Z,100342.72
2022-08-19T16:24:17.699Z,100353.03
2022-08-19T16:26:48.476Z,100303.28
2022-08-19T16:29:22.140Z,100348.88
2022-08-19T16:32:02.781Z,100363.66
2022-08-19T16:34:30.433Z,100357.03
2022-08-19T16:36:57.456Z,100356.66
2022-08-19T16:39:24.413Z,100351.28
2022-08-19T16:41:51.747Z,100356.22
2022-08-19T16:44:21.256Z,100351.72
2022-08-19T16:46:58.289Z,100317.22
2022-08-19T16:49:54.228Z,100329.13
2022-08-19T16:52:18.954Z,100334.88
2022-08-19T16:54:46.044Z,100322.19
2022-08-19T16:57:13.720Z,100323.38
2022-08-19T16:59:48.524Z,100325.84
2022-08-19T17:02:21.915Z,100233.03
2022-08-19T17:04:57.202Z,100332.88
2022-08-19T17:07:26.220Z,100330.78
2022-08-19T17:09:53.142Z,100288.06
2022-08-19T17:12:19.967Z,100340.63
2022-08-19T17:14:46.790Z,100352.91
2022-08-19T17:17:13.792Z,100348.03
2022-08-19T17:19:44.707Z,100295.44
2022-08-19T17:22:13.117Z,100346.34
2022-08-19T17:24:41.186Z,100340.59
2022-08-19T17:27:09.111Z,100319.25
2022-08-19T17:29:35.960Z,100309.44
2022-08-19T17:32:03.375Z,100287.22
2022-08-19T17:34:30.557Z,100316.00
2022-08-19T17:36:57.514Z,100308.63
2022-08-19T17:39:25.590Z,100242.00
2022-08-19T17:41:52.429Z,100259.69
2022-08-19T17:44:19.420Z,100276.56
2022-08-19T17:46:47.176Z,100333.22
2022-08-19T17:49:14.365Z,100246.13
2022-08-19T17:51:46.937Z,100309.41
2022-08-19T17:54:19.096Z,100307.34
2022-08-19T17:56:46.663Z,100308.59
2022-08-19T17:59:15.546Z,100270.34
2022-08-19T18:01:53.084Z,100291.31
2022-08-19T18:04:23.233Z,100330.75
2022-08-19T18:06:52.982Z,100304.03
2022-08-19T18:09:41.879Z,100313.09
2022-08-19T18:12:11.666Z,100334.03
2022-08-19T18:14:39.417Z,100330.34
2022-08-19T18:17:11.960Z,100320.09
2022-08-19T18:19:42.736Z,100335.69
2022-08-19T18:22:13.413Z,100333.22
2022-08-19T18:24:42.026Z,100303.66
2022-08-19T18:27:10.181Z,100331.59
2022-08-19T18:29:38.780Z,100331.16
2022-08-19T18:32:12.202Z,100328.66
2022-08-19T18:34:39.677Z,100330.72
2022-08-19T18:37:06.549Z,100298.22
2022-08-19T18:39:51.949Z,100324.94
2022-08-19T18:42:37.344Z,100319.59
2022-08-19T18:45:24.590Z,100269.84
2022-08-19T18:48:18.498Z,100329.47
2022-08-19T18:50:55.870Z,100337.69
2022-08-19T18:53:22.702Z,100309.28
2022-08-19T18:55:52.060Z,100334.78
2022-08-19T18:58:18.802Z,100340.53
2022-08-19T19:00:45.759Z,100324.06
2022-08-19T19:03:12.562Z,100342.97
2022-08-19T19:05:43.443Z,100285.34
2022-08-19T19:08:12.247Z,100319.81
2022-08-19T19:10:41.106Z,100351.06
2022-08-19T19:13:08.023Z,100343.63
2022-08-19T19:15:35.277Z,100337.88
2022-08-19T19:18:02.082Z,100326.38
2022-08-19T19:20:36.466Z,100352.63
2022-08-19T19:23:04.096Z,100359.19
2022-08-19T19:25:49.622Z,100351.72
2022-08-19T19:28:30.956Z,100313.88
2022-08-19T19:30:58.806Z,100354.59
2022-08-19T19:33:27.445Z,100301.13
2022-08-19T19:35:54.536Z,100320.34
2022-08-19T19:38:21.550Z,100319.97
2022-08-19T19:40:48.370Z,100345.91
2022-08-19T19:43:18.444Z,100356.53
2022-08-19T19:45:47.294Z,100318.25
2022-08-19T19:48:16.478Z,100313.19
2022-08-19T19:50:44.940Z,100365.50
2022-08-19T19:53:11.909Z,100344.84
2022-08-19T19:55:41.248Z,100310.22
2022-08-19T19:58:08.698Z,100305.25
2022-08-19T20:00:35.887Z,100344.69
2022-08-19T20:03:02.890Z,100371.75
2022-08-19T20:05:29.779Z,100344.16
2022-08-19T20:08:15.319Z,100387.22
2022-08-19T20:10:43.747Z,100373.22
2022-08-19T20:13:11.662Z,100367.34
2022-08-19T20:15:42.359Z,100358.63
2022-08-19T20:18:11.108Z,100332.66
2022-08-19T20:20:38.489Z,100363.91
2022-08-19T20:23:06.181Z,100381.13
2022-08-19T20:25:34.175Z,100379.84
2022-08-19T20:28:01.496Z,100287.50
2022-08-19T20:30:32.095Z,100377.69
2022-08-19T20:33:00.096Z,100381.31
2022-08-19T20:35:26.986Z,100354.97
2022-08-19T20:37:58.106Z,100380.31
2022-08-19T20:40:26.131Z,100331.75
2022-08-19T20:42:54.702Z,100338.75
2022-08-19T20:45:32.908Z,100377.41
2022-08-19T20:48:02.982Z,100355.94
2022-08-19T20:50:31.890Z,100379.00
2022-08-19T20:52:58.844Z,100376.94
2022-08-19T20:55:26.651Z,100295.69
2022-08-19T20:57:53.849Z,100387.16
2022-08-19T21:00:20.952Z,100388.81
2022-08-19T21:02:47.817Z,100392.97
2022-08-19T21:05:15.232Z,100388.13
2022-08-19T21:07:42.191Z,100372.81
2022-08-19T21:10:09.295Z,100394.66
2022-08-19T21:12:36.417Z,100389.78
2022-08-19T21:15:04.068Z,100299.91
2022-08-19T21:17:31.612Z,100348.13
2022-08-19T21:19:58.534Z,100383.13
2022-08-19T21:22:25.399Z,100400.84
2022-08-19T21:24:52.229Z,100394.25
2022-08-19T21:27:19.213Z,100400.88
2022-08-19T21:29:46.019Z,100395.16
2022-08-19T21:32:14.315Z,100393.03
2022-08-19T21:34:43.683Z,100393.88
2022-08-19T21:37:25.765Z,100386.13
2022-08-19T21:39:54.509Z,100384.28
2022-08-19T21:42:23.346Z,100407.81
2022-08-19T21:44:50.238Z,100409.06
2022-08-19T21:47:17.177Z,100330.44
2022-08-19T21:49:44.032Z,100364.66
2022-08-19T21:52:10.859Z,100409.91
2022-08-19T21:54:38.679Z,100397.66
2022-08-19T21:57:07.060Z,100397.31
2022-08-19T21:59:43.439Z,100354.84
2022-08-19T22:02:21.300Z,100389.94
2022-08-19T22:04:51.058Z,100396.91
2022-08-19T22:07:18.926Z,100314.94
2022-08-19T22:09:46.719Z,100401.84
2022-08-19T22:12:25.042Z,100393.63
2022-08-19T22:14:53.203Z,100371.75
2022-08-19T22:17:20.285Z,100343.72
2022-08-19T22:19:47.311Z,100353.63
2022-08-19T22:22:24.311Z,100381.34
2022-08-19T22:24:55.433Z,100386.22
2022-08-19T22:27:22.259Z,100394.44
2022-08-19T22:29:52.418Z,100378.78
2022-08-19T22:32:28.071Z,100334.28
2022-08-19T22:34:58.027Z,100381.97
2022-08-19T22:37:25.905Z,100333.72
2022-08-19T22:39:52.928Z,100357.91
2022-08-19T22:42:21.171Z,100370.22
2022-08-19T22:44:49.073Z,100306.66
2022-08-19T22:47:16.135Z,100300.03
2022-08-19T22:49:43.786Z,100404.56
2022-08-19T22:52:20.121Z,100351.06
2022-08-19T22:54:52.855Z,100379.81
2022-08-19T22:57:21.319Z,100366.56
2022-08-19T22:59:50.250Z,100343.38
2022-08-19T23:02:27.404Z,100386.91
2022-08-19T23:04:54.344Z,100403.16
2022-08-19T23:07:23.656Z,100385.50
2022-08-19T23:09:50.842Z,100377.88
2022-08-19T23:12:26.598Z,100351.56
2022-08-19T23:14:53.689Z,100289.25
2022-08-19T23:17:20.620Z,100356.03
2022-08-19T23:19:47.469Z,100367.16
2022-08-19T23:22:18.532Z,100366.44
2022-08-19T23:24:45.470Z,100377.50
2022-08-19T23:27:31.041Z,100333.88
2022-08-19T23:30:16.414Z,100378.88
2022-08-19T23:32:43.477Z,100352.00
2022-08-19T23:35:10.299Z,100374.19
2022-08-19T23:37:37.571Z,100337.59
2022-08-19T23:40:07.036Z,100367.25
2022-08-19T23:42:34.561Z,100338.47
2022-08-19T23:45:03.787Z,100344.63
2022-08-19T23:47:32.210Z,100347.88
2022-08-19T23:50:01.941Z,100374.59
2022-08-19T23:52:29.567Z,100344.84
2022-08-19T23:55:09.619Z,100266.94
2022-08-19T23:57:36.741Z,100358.97
